createdAt,value
2017-09-24T00:00:31.840Z,30.37
2017-09-24T00:02:58.456Z,27.03
2017-09-24T00:05:25.086Z,23.33
2017-09-24T00:07:51.708Z,24.00
2017-09-24T00:10:18.326Z,26.27
2017-09-24T00:12:44.967Z,25.77
2017-09-24T00:15:11.580Z,29.20
2017-09-24T00:17:38.218Z,23.40
2017-09-24T00:20:04.840Z,26.77
2017-09-24T00:22:31.484Z,27.70
2017-09-24T00:24:58.114Z,28.13
2017-09-24T00:27:24.774Z,28.93
2017-09-24T00:29:51.407Z,30.67
2017-09-24T00:32:18.022Z,28.57
2017-09-24T00:34:44.659Z,32.53
2017-09-24T00:37:11.295Z,31.87
2017-09-24T00:39:37.942Z,32.20
2017-09-24T00:42:04.602Z,33.00
2017-09-24T00:44:31.212Z,36.27
2017-09-24T00:46:57.829Z,31.20
2017-09-24T00:49:24.466Z,28.83
2017-09-24T00:51:51.087Z,25.57
2017-09-24T00:54:17.723Z,27.27
2017-09-24T00:56:44.347Z,28.97
2017-09-24T00:59:10.990Z,29.13
2017-09-24T01:01:37.630Z,26.60
2017-09-24T01:04:04.254Z,28.30
2017-09-24T01:06:30.893Z,29.17
2017-09-24T01:08:57.519Z,28.63
2017-09-24T01:11:24.146Z,31.10
2017-09-24T01:13:50.779Z,26.83
2017-09-24T01:16:17.422Z,24.10
2017-09-24T01:18:44.038Z,25.13
2017-09-24T01:21:10.683Z,27.70
2017-09-24T01:23:37.342Z,32.97
2017-09-24T01:26:03.979Z,33.90
2017-09-24T01:28:30.637Z,31.40
2017-09-24T01:30:57.278Z,29.20
2017-09-24T01:33:23.950Z,32.87
2017-09-24T01:35:50.563Z,23.80
2017-09-24T01:38:17.195Z,24.10
2017-09-24T01:40:43.838Z,23.83
2017-09-24T01:43:10.467Z,25.63
2017-09-24T01:45:37.110Z,29.00
2017-09-24T01:48:03.758Z,29.50
2017-09-24T01:50:30.376Z,27.60
2017-09-24T01:52:57.006Z,26.20
2017-09-24T01:55:23.627Z,25.03
2017-09-24T01:57:50.250Z,26.83
2017-09-24T02:00:16.872Z,26.17
2017-09-24T02:02:43.519Z,29.80
2017-09-24T02:05:10.146Z,27.23
2017-09-24T02:07:36.791Z,27.60
2017-09-24T02:10:03.444Z,21.90
2017-09-24T02:12:30.067Z,23.90
2017-09-24T02:14:56.677Z,27.07
2017-09-24T02:17:23.316Z,28.50
2017-09-24T02:19:49.939Z,27.70
2017-09-24T02:22:16.560Z,32.70
2017-09-24T02:24:43.199Z,30.40
2017-09-24T02:27:09.862Z,26.60
2017-09-24T02:29:36.470Z,27.60
2017-09-24T02:32:03.098Z,28.80
2017-09-24T02:34:29.740Z,26.90
2017-09-24T02:36:56.379Z,30.40
2017-09-24T02:39:23.012Z,27.53
2017-09-24T02:41:49.677Z,28.80
2017-09-24T02:44:16.337Z,27.43
2017-09-24T02:46:42.961Z,29.80
2017-09-24T02:49:09.597Z,30.83
2017-09-24T02:51:36.243Z,28.43
2017-09-24T02:54:02.862Z,26.63
2017-09-24T02:56:29.498Z,25.33
2017-09-24T02:58:56.163Z,27.20
2017-09-24T03:01:22.811Z,30.23
2017-09-24T03:03:49.446Z,28.57
2017-09-24T03:06:16.082Z,30.50
2017-09-24T03:08:42.747Z,30.87
2017-09-24T03:11:09.382Z,29.33
2017-09-24T03:13:36.056Z,32.43
2017-09-24T03:16:02.670Z,31.03
2017-09-24T03:18:29.326Z,31.30
2017-09-24T03:20:56.190Z,32.43
2017-09-24T03:23:22.814Z,30.93
2017-09-24T03:25:49.462Z,28.17
2017-09-24T03:28:16.126Z,28.33
2017-09-24T03:30:42.760Z,28.23
2017-09-24T03:33:09.392Z,28.13
2017-09-24T03:35:36.016Z,30.30
2017-09-24T03:38:02.653Z,32.47
2017-09-24T03:40:29.293Z,31.37
2017-09-24T03:42:55.931Z,27.10
2017-09-24T03:45:22.562Z,26.87
2017-09-24T03:47:49.212Z,27.65
2017-09-24T03:50:15.850Z,28.93
2017-09-24T03:52:42.505Z,28.73
2017-09-24T03:55:09.163Z,32.72
2017-09-24T03:57:36.100Z,28.73
2017-09-24T04:00:02.762Z,29.33
2017-09-24T04:02:29.440Z,32.30
2017-09-24T04:04:56.070Z,31.83
2017-09-24T04:07:22.691Z,30.83
2017-09-24T04:09:49.339Z,31.60
2017-09-24T04:12:22.983Z,32.90
2017-09-24T04:14:49.603Z,29.37
2017-09-24T04:17:16.259Z,26.90
2017-09-24T04:19:42.884Z,25.97
2017-09-24T04:22:09.518Z,24.80
2017-09-24T04:24:36.200Z,26.57
2017-09-24T04:27:02.830Z,29.53
2017-09-24T04:29:29.471Z,29.05
2017-09-24T04:31:56.112Z,32.50
2017-09-24T04:34:22.751Z,26.92
2017-09-24T04:36:49.372Z,26.60
2017-09-24T04:39:16.026Z,26.93
2017-09-24T04:41:42.644Z,25.33
2017-09-24T04:44:09.273Z,29.05
2017-09-24T04:46:35.919Z,28.37
2017-09-24T04:49:02.558Z,35.87
2017-09-24T04:51:29.178Z,35.30
2017-09-24T04:53:55.806Z,36.63
2017-09-24T04:56:22.448Z,31.83
2017-09-24T04:58:49.083Z,29.63
2017-09-24T05:01:15.711Z,30.80
2017-09-24T05:03:42.352Z,33.37
2017-09-24T05:06:08.986Z,31.60
2017-09-24T05:08:35.642Z,31.75
2017-09-24T05:11:02.315Z,31.17
2017-09-24T05:13:28.992Z,29.70
2017-09-24T05:15:55.613Z,29.57
2017-09-24T05:18:22.246Z,32.50
2017-09-24T05:20:48.885Z,31.33
2017-09-24T05:23:15.536Z,32.35
2017-09-24T05:25:42.171Z,32.63
2017-09-24T05:28:08.809Z,29.17
2017-09-24T05:30:35.442Z,29.80
2017-09-24T05:33:02.093Z,29.00
2017-09-24T05:35:28.776Z,28.80
2017-09-24T05:37:55.492Z,32.05
2017-09-24T05:40:23.059Z,33.17
2017-09-24T05:42:49.691Z,32.20
2017-09-24T05:45:16.320Z,31.77
2017-09-24T05:47:42.965Z,30.42
2017-09-24T05:50:09.599Z,32.33
2017-09-24T05:52:36.270Z,29.25
2017-09-24T05:55:02.898Z,30.60
2017-09-24T05:57:29.540Z,33.90
2017-09-24T05:59:56.178Z,33.03
2017-09-24T06:02:22.799Z,30.92
2017-09-24T06:04:49.458Z,31.08
2017-09-24T06:07:16.099Z,29.50
2017-09-24T06:09:42.794Z,28.65
2017-09-24T06:12:09.418Z,30.70
2017-09-24T06:14:36.063Z,34.80
2017-09-24T06:17:02.723Z,29.50
2017-09-24T06:19:29.368Z,31.70
2017-09-24T06:21:55.995Z,34.42
2017-09-24T06:24:22.644Z,36.60
2017-09-24T06:26:49.298Z,33.42
2017-09-24T06:29:15.930Z,32.80
2017-09-24T06:31:42.575Z,29.13
2017-09-24T06:34:09.215Z,31.77
2017-09-24T06:36:35.864Z,30.20
2017-09-24T06:39:02.474Z,31.10
2017-09-24T06:41:29.154Z,31.60
2017-09-24T06:43:55.806Z,32.57
2017-09-24T06:46:22.446Z,33.67
2017-09-24T06:48:49.100Z,34.30
2017-09-24T06:51:15.756Z,32.17
2017-09-24T06:53:42.390Z,28.83
2017-09-24T06:56:09.019Z,29.40
2017-09-24T06:58:35.659Z,30.40
2017-09-24T07:01:02.402Z,31.53
2017-09-24T07:03:29.062Z,28.00
2017-09-24T07:05:55.693Z,29.40
2017-09-24T07:08:22.312Z,31.20
2017-09-24T07:10:48.958Z,30.57
2017-09-24T07:13:15.587Z,30.43
2017-09-24T07:15:42.244Z,31.03
2017-09-24T07:18:08.911Z,31.13
2017-09-24T07:20:35.546Z,31.03
2017-09-24T07:23:02.195Z,30.57
2017-09-24T07:25:28.808Z,31.47
2017-09-24T07:27:55.519Z,29.43
2017-09-24T07:30:22.141Z,29.37
2017-09-24T07:32:48.755Z,27.00
2017-09-24T07:35:15.394Z,29.30
2017-09-24T07:37:42.026Z,28.23
2017-09-24T07:40:08.659Z,33.57
2017-09-24T07:42:35.282Z,30.93
2017-09-24T07:45:01.968Z,32.30
2017-09-24T07:47:28.590Z,30.77
2017-09-24T07:49:55.219Z,31.27
2017-09-24T07:52:21.843Z,30.20
2017-09-24T07:54:48.474Z,29.30
2017-09-24T07:57:15.095Z,32.67
2017-09-24T07:59:41.752Z,32.13
2017-09-24T08:02:08.391Z,31.87
2017-09-24T08:04:35.026Z,33.27
2017-09-24T08:07:01.638Z,37.23
2017-09-24T08:09:28.304Z,32.07
2017-09-24T08:11:54.926Z,35.87
2017-09-24T08:14:21.582Z,36.23
2017-09-24T08:16:48.206Z,36.30
2017-09-24T08:19:14.846Z,39.50
2017-09-24T08:21:41.481Z,38.13
2017-09-24T08:24:08.118Z,41.30
2017-09-24T08:26:34.766Z,49.20
2017-09-24T08:29:01.403Z,49.07
2017-09-24T08:31:28.039Z,45.13
2017-09-24T08:33:54.707Z,44.17
2017-09-24T08:36:21.330Z,42.20
2017-09-24T08:38:47.968Z,48.83
2017-09-24T08:41:14.578Z,50.20
2017-09-24T08:43:41.211Z,50.17
2017-09-24T08:46:07.863Z,53.20
2017-09-24T08:48:34.516Z,49.80
2017-09-24T08:51:01.147Z,50.23
2017-09-24T08:53:27.789Z,48.83
2017-09-24T08:55:54.435Z,51.03
2017-09-24T08:58:21.104Z,49.63
2017-09-24T09:00:47.726Z,49.00
2017-09-24T09:03:14.343Z,45.43
2017-09-24T09:05:40.991Z,47.63
2017-09-24T09:08:07.634Z,45.80
2017-09-24T09:10:34.292Z,45.57
2017-09-24T09:13:00.914Z,48.80
2017-09-24T09:15:27.597Z,49.97
2017-09-24T09:17:54.351Z,51.93
2017-09-24T09:20:21.018Z,49.67
2017-09-24T09:22:48.112Z,50.27
2017-09-24T09:25:14.749Z,50.60
2017-09-24T09:27:41.378Z,51.00
2017-09-24T09:30:08.039Z,49.33
2017-09-24T09:32:40.522Z,50.37
2017-09-24T09:35:12.948Z,49.00
2017-09-24T09:37:39.595Z,52.87
2017-09-24T09:40:06.260Z,50.23
2017-09-24T09:42:32.887Z,51.80
2017-09-24T09:44:59.605Z,52.47
2017-09-24T09:47:26.277Z,47.67
2017-09-24T09:49:52.919Z,49.60
2017-09-24T09:52:19.560Z,49.13
2017-09-24T09:54:46.205Z,50.10
2017-09-24T09:57:12.845Z,51.43
2017-09-24T09:59:39.535Z,47.93
2017-09-24T10:02:06.167Z,49.43
2017-09-24T10:04:32.778Z,44.93
2017-09-24T10:07:05.228Z,46.83
2017-09-24T10:09:37.645Z,45.07
2017-09-24T10:12:04.295Z,42.57
2017-09-24T10:14:30.931Z,43.40
2017-09-24T10:16:57.604Z,43.77
2017-09-24T10:19:24.231Z,40.23
2017-09-24T10:21:50.867Z,40.03
2017-09-24T10:24:17.549Z,39.63
2017-09-24T10:26:44.158Z,39.53
2017-09-24T10:29:16.599Z,36.00
2017-09-24T10:34:39.079Z,38.10
2017-09-24T10:37:05.704Z,36.03
2017-09-24T10:39:32.352Z,36.47
2017-09-24T10:41:58.990Z,30.07
2017-09-24T10:44:25.610Z,32.93
2017-09-24T10:46:52.354Z,29.73
2017-09-24T10:49:18.984Z,31.10
2017-09-24T10:51:45.627Z,28.57
2017-09-24T10:54:12.275Z,31.00
2017-09-24T10:56:38.910Z,34.17
2017-09-24T10:59:05.534Z,29.27
2017-09-24T11:01:32.146Z,29.50
2017-09-24T11:03:58.808Z,24.60
2017-09-24T11:06:25.425Z,28.37
2017-09-24T11:08:52.043Z,29.73
2017-09-24T11:11:18.708Z,28.17
2017-09-24T11:13:45.369Z,25.37
2017-09-24T11:16:12.016Z,28.00
2017-09-24T11:18:38.648Z,25.10
2017-09-24T11:21:05.325Z,24.83
2017-09-24T11:23:32.100Z,28.30
2017-09-24T11:25:58.738Z,25.70
2017-09-24T11:28:25.362Z,21.80
2017-09-24T11:30:52.017Z,23.47
2017-09-24T11:33:19.255Z,24.93
2017-09-24T11:35:45.890Z,23.80
2017-09-24T11:38:12.532Z,27.07
2017-09-24T11:40:39.189Z,24.27
2017-09-24T11:43:05.835Z,21.70
2017-09-24T11:45:32.474Z,27.80
2017-09-24T11:47:59.142Z,26.87
2017-09-24T11:50:25.779Z,20.77
2017-09-24T11:52:52.425Z,23.40
2017-09-24T11:55:19.038Z,22.83
2017-09-24T11:57:45.720Z,20.03
2017-09-24T12:00:12.356Z,19.60
2017-09-24T12:02:38.990Z,20.57
2017-09-24T12:05:05.610Z,17.40
2017-09-24T12:07:32.595Z,15.50
2017-09-24T12:09:59.224Z,16.70
2017-09-24T12:12:25.856Z,17.73
2017-09-24T12:14:52.495Z,22.20
2017-09-24T12:17:19.153Z,22.20
2017-09-24T12:19:45.841Z,20.00
2017-09-24T12:22:13.094Z,18.33
2017-09-24T12:24:39.756Z,17.90
2017-09-24T12:27:06.393Z,20.53
2017-09-24T12:29:33.707Z,21.57
2017-09-24T12:32:00.327Z,19.90
2017-09-24T12:34:26.980Z,21.47
2017-09-24T12:36:53.638Z,20.20
2017-09-24T12:39:20.307Z,20.70
2017-09-24T12:41:46.956Z,21.27
2017-09-24T12:44:13.619Z,24.03
2017-09-24T12:46:40.290Z,23.70
2017-09-24T12:49:06.949Z,27.00
2017-09-24T12:51:33.599Z,28.00
2017-09-24T12:54:00.252Z,28.27
2017-09-24T12:56:26.875Z,25.73
2017-09-24T12:58:53.501Z,21.93
2017-09-24T13:01:20.156Z,24.50
2017-09-24T13:03:46.768Z,23.90
2017-09-24T13:06:13.439Z,24.23
2017-09-24T13:08:40.085Z,23.33
2017-09-24T13:11:06.730Z,25.97
2017-09-24T13:13:33.358Z,24.37
2017-09-24T13:16:00.001Z,25.03
2017-09-24T13:18:26.901Z,24.37
2017-09-24T13:20:53.547Z,25.30
2017-09-24T13:23:20.208Z,24.07
2017-09-24T13:25:46.826Z,24.67
2017-09-24T13:28:13.479Z,21.20
2017-09-24T13:30:40.116Z,18.80
2017-09-24T13:33:06.776Z,20.80
2017-09-24T13:35:33.432Z,21.90
2017-09-24T13:38:00.081Z,20.00
2017-09-24T13:40:26.738Z,24.17
2017-09-24T13:42:53.366Z,25.03
2017-09-24T13:45:20.010Z,24.60
2017-09-24T13:47:46.676Z,22.40
2017-09-24T13:50:13.315Z,21.10
2017-09-24T13:52:39.957Z,23.07
2017-09-24T13:55:06.591Z,18.63
2017-09-24T13:57:33.241Z,22.90
2017-09-24T13:59:59.862Z,18.13
2017-09-24T14:02:26.496Z,23.30
2017-09-24T14:04:53.165Z,23.47
2017-09-24T14:07:19.783Z,23.13
2017-09-24T14:09:46.454Z,22.50
2017-09-24T14:12:13.136Z,18.70
2017-09-24T14:14:39.787Z,23.90
2017-09-24T14:17:06.451Z,23.53
2017-09-24T14:19:33.096Z,21.40
2017-09-24T14:21:59.734Z,22.53
2017-09-24T14:24:26.362Z,20.00
2017-09-24T14:26:53.008Z,19.67
2017-09-24T14:29:19.627Z,24.47
2017-09-24T14:31:46.298Z,24.20
2017-09-24T14:34:12.963Z,26.20
2017-09-24T14:36:39.605Z,23.87
2017-09-24T14:39:06.244Z,23.53
2017-09-24T14:41:32.909Z,27.43
2017-09-24T14:43:59.526Z,25.40
2017-09-24T14:46:26.162Z,25.63
2017-09-24T14:48:52.813Z,29.77
2017-09-24T14:51:19.455Z,32.77
2017-09-24T14:53:46.122Z,29.50
2017-09-24T14:56:12.760Z,28.77
2017-09-24T14:58:39.408Z,31.97
2017-09-24T15:01:06.069Z,37.77
2017-09-24T15:03:32.698Z,37.60
2017-09-24T15:05:59.351Z,33.33
2017-09-24T15:08:25.986Z,36.30
2017-09-24T15:10:52.653Z,37.93
2017-09-24T15:13:19.273Z,34.70
2017-09-24T15:15:45.919Z,35.93
2017-09-24T15:18:12.752Z,37.33
2017-09-24T15:20:39.375Z,40.50
2017-09-24T15:23:06.041Z,39.83
2017-09-24T15:25:32.706Z,41.87
2017-09-24T15:27:59.334Z,40.10
2017-09-24T15:30:25.960Z,36.20
2017-09-24T15:32:52.625Z,41.00
2017-09-24T15:35:19.281Z,36.63
2017-09-24T15:37:45.919Z,37.10
2017-09-24T15:40:12.565Z,35.57
2017-09-24T15:42:39.213Z,33.73
2017-09-24T15:45:05.847Z,35.97
2017-09-24T15:47:32.491Z,35.70
2017-09-24T15:49:59.149Z,33.37
2017-09-24T15:52:25.790Z,32.77
2017-09-24T15:54:52.423Z,31.90
2017-09-24T15:57:19.061Z,32.90
2017-09-24T15:59:45.708Z,33.53
2017-09-24T16:02:12.343Z,27.97
2017-09-24T16:04:38.979Z,27.57
2017-09-24T16:07:05.633Z,26.57
2017-09-24T16:09:32.272Z,28.27
2017-09-24T16:11:58.929Z,25.40
2017-09-24T16:14:25.602Z,25.67
2017-09-24T16:16:52.235Z,22.77
2017-09-24T16:19:18.907Z,25.40
2017-09-24T16:21:45.540Z,22.00
2017-09-24T16:24:12.206Z,22.73
2017-09-24T16:26:38.866Z,23.97
2017-09-24T16:29:05.519Z,23.87
2017-09-24T16:31:32.169Z,23.30
2017-09-24T16:33:58.821Z,23.00
2017-09-24T16:36:25.476Z,24.07
2017-09-24T16:38:52.127Z,24.87
2017-09-24T16:41:18.771Z,24.00
2017-09-24T16:43:45.471Z,24.13
2017-09-24T16:46:12.101Z,23.00
2017-09-24T16:48:38.761Z,22.07
2017-09-24T16:51:05.436Z,21.37
2017-09-24T16:53:32.055Z,22.30
2017-09-24T16:55:58.689Z,21.30
2017-09-24T16:58:25.348Z,22.17
2017-09-24T17:00:51.981Z,21.80
2017-09-24T17:03:18.627Z,20.43
2017-09-24T17:05:45.254Z,21.53
2017-09-24T17:08:11.915Z,22.63
2017-09-24T17:10:38.525Z,22.57
2017-09-24T17:13:05.144Z,21.87
2017-09-24T17:15:31.807Z,23.13
2017-09-24T17:17:58.469Z,22.83
2017-09-24T17:20:25.112Z,23.43
2017-09-24T17:22:51.784Z,20.53
2017-09-24T17:25:18.433Z,20.47
2017-09-24T17:27:45.077Z,21.80
2017-09-24T17:30:11.712Z,22.87
2017-09-24T17:32:38.350Z,24.00
2017-09-24T17:35:05.007Z,21.80
2017-09-24T17:37:32.648Z,22.87
2017-09-24T17:39:59.296Z,21.70
2017-09-24T17:42:25.921Z,21.80
2017-09-24T17:44:52.555Z,23.30
2017-09-24T17:47:19.217Z,23.20
2017-09-24T17:49:45.846Z,24.23
2017-09-24T17:52:12.507Z,22.27
2017-09-24T17:54:39.142Z,22.20
2017-09-24T17:57:05.816Z,23.77
2017-09-24T17:59:32.483Z,24.43
2017-09-24T18:01:59.152Z,24.43
2017-09-24T18:04:25.795Z,22.23
2017-09-24T18:06:52.437Z,24.67
2017-09-24T18:09:19.077Z,22.40
2017-09-24T18:11:45.724Z,23.73
2017-09-24T18:14:12.381Z,23.43
2017-09-24T18:16:39.021Z,24.30
2017-09-24T18:19:05.674Z,24.90
2017-09-24T18:21:32.304Z,26.60
2017-09-24T18:23:58.956Z,24.07
2017-09-24T18:26:29.770Z,25.13
2017-09-24T18:28:56.438Z,24.30
2017-09-24T18:31:23.069Z,24.40
2017-09-24T18:33:49.708Z,26.33
2017-09-24T18:36:16.371Z,24.87
2017-09-24T18:42:02.191Z,25.10
2017-09-24T18:44:28.824Z,23.27
2017-09-24T18:46:55.692Z,22.40
2017-09-24T18:49:22.494Z,20.90
2017-09-24T18:52:02.926Z,21.13
2017-09-24T18:54:31.216Z,20.93
2017-09-24T18:56:57.902Z,23.90
2017-09-24T18:59:24.534Z,26.17
2017-09-24T19:01:51.216Z,25.50
2017-09-24T19:04:17.843Z,23.67
2017-09-24T19:06:44.670Z,23.53
2017-09-24T19:09:11.491Z,24.00
2017-09-24T19:11:38.422Z,22.23
2017-09-24T19:14:05.386Z,22.40
2017-09-24T19:16:32.124Z,22.57
2017-09-24T19:18:58.851Z,24.00
2017-09-24T19:21:25.588Z,27.10
2017-09-24T19:23:52.265Z,26.43
2017-09-24T19:26:19.071Z,26.47
2017-09-24T19:28:45.817Z,28.10
2017-09-24T19:31:12.516Z,26.43
2017-09-24T19:33:39.337Z,24.67
2017-09-24T19:36:06.064Z,24.13
2017-09-24T19:38:32.920Z,24.90
2017-09-24T19:40:59.910Z,24.07
2017-09-24T19:43:26.707Z,23.00
2017-09-24T19:45:53.804Z,18.70
2017-09-24T19:48:20.600Z,18.40
2017-09-24T19:50:48.560Z,19.90
2017-09-24T19:53:15.319Z,20.90
2017-09-24T19:55:42.082Z,20.30
2017-09-24T19:58:08.894Z,20.70
2017-09-24T20:00:35.515Z,22.23
2017-09-24T20:03:02.159Z,21.23
2017-09-24T20:05:28.851Z,17.80
2017-09-24T20:07:55.499Z,16.20
2017-09-24T20:10:22.134Z,17.00
2017-09-24T20:12:48.772Z,20.27
2017-09-24T20:15:15.415Z,19.17
2017-09-24T20:17:42.051Z,21.90
2017-09-24T20:20:08.705Z,21.77
2017-09-24T20:22:35.355Z,24.00
2017-09-24T20:25:01.975Z,21.53
2017-09-24T20:27:28.607Z,22.57
2017-09-24T20:29:55.243Z,21.67
2017-09-24T20:32:21.879Z,20.57
2017-09-24T20:34:48.543Z,22.03
2017-09-24T20:37:15.172Z,22.50
2017-09-24T20:39:41.830Z,21.50
2017-09-24T20:42:08.449Z,20.10
2017-09-24T20:44:35.089Z,18.70
2017-09-24T20:47:01.748Z,19.00
2017-09-24T20:49:28.376Z,18.80
2017-09-24T20:51:55.018Z,20.90
2017-09-24T20:54:21.661Z,18.20
2017-09-24T20:56:48.322Z,19.43
2017-09-24T20:59:14.962Z,20.77
2017-09-24T21:01:41.603Z,18.87
2017-09-24T21:04:08.246Z,19.00
2017-09-24T21:06:35.141Z,20.10
2017-09-24T21:09:01.811Z,17.17
2017-09-24T21:11:28.449Z,18.13
2017-09-24T21:13:55.133Z,15.97
2017-09-24T21:16:21.771Z,17.53
2017-09-24T21:18:48.407Z,19.17
2017-09-24T21:21:15.055Z,18.97
2017-09-24T21:23:41.678Z,17.10
2017-09-24T21:26:08.300Z,16.30
2017-09-24T21:28:34.959Z,17.20
2017-09-24T21:31:01.586Z,17.90
2017-09-24T21:33:28.218Z,16.17
2017-09-24T21:35:54.895Z,16.17
2017-09-24T21:38:21.546Z,17.47
2017-09-24T21:40:48.175Z,16.60
2017-09-24T21:43:14.833Z,15.87
2017-09-24T21:45:41.473Z,16.80
2017-09-24T21:48:08.134Z,16.70
2017-09-24T21:50:34.770Z,16.60
2017-09-24T21:53:01.415Z,16.20
2017-09-24T21:55:28.053Z,17.07
2017-09-24T21:57:54.715Z,18.73
2017-09-24T22:00:21.372Z,16.63
2017-09-24T22:02:48.046Z,16.00
2017-09-24T22:05:14.695Z,15.83
2017-09-24T22:07:41.308Z,15.10
2017-09-24T22:10:07.946Z,16.90
2017-09-24T22:12:34.614Z,15.73
2017-09-24T22:15:01.256Z,17.53
2017-09-24T22:17:27.878Z,16.03
2017-09-24T22:19:54.532Z,18.33
2017-09-24T22:22:21.157Z,16.33
2017-09-24T22:24:47.826Z,17.37
2017-09-24T22:27:14.468Z,17.93
2017-09-24T22:29:41.094Z,17.80
2017-09-24T22:32:07.740Z,18.13
2017-09-24T22:34:34.368Z,18.00
2017-09-24T22:37:01.007Z,16.97
2017-09-24T22:39:27.627Z,19.93
2017-09-24T22:41:54.276Z,18.77
2017-09-24T22:44:20.922Z,17.63
2017-09-24T22:46:47.543Z,16.90
2017-09-24T22:49:14.180Z,17.40
2017-09-24T22:51:40.823Z,17.10
2017-09-24T22:54:07.479Z,18.50
2017-09-24T22:56:34.123Z,18.00
2017-09-24T22:59:00.752Z,18.33
2017-09-24T23:01:27.409Z,17.23
2017-09-24T23:03:54.039Z,15.33
2017-09-24T23:06:20.678Z,11.60
2017-09-24T23:08:47.290Z,12.93
2017-09-24T23:11:13.975Z,13.97
2017-09-24T23:13:40.579Z,14.33
2017-09-24T23:16:07.213Z,15.30
2017-09-24T23:18:33.845Z,16.90
2017-09-24T23:21:00.495Z,16.90
2017-09-24T23:23:27.108Z,17.37
2017-09-24T23:25:53.752Z,16.90
2017-09-24T23:28:20.361Z,14.80
2017-09-24T23:30:47.015Z,13.23
2017-09-24T23:33:13.660Z,13.23
2017-09-24T23:35:40.283Z,14.60
2017-09-24T23:38:06.918Z,16.30
2017-09-24T23:40:33.546Z,18.30
2017-09-24T23:43:00.192Z,17.50
2017-09-24T23:45:26.814Z,15.40
2017-09-24T23:47:53.471Z,12.60
2017-09-24T23:50:20.111Z,15.80
2017-09-24T23:52:46.735Z,19.17
2017-09-24T23:55:13.351Z,17.40
2017-09-24T23:57:39.980Z,20.63
